sensor_id;sensor_type;location;lat;lon;timestamp;temperature;humidity
25050;DHT22;13046;49.814;9.918;2023-02-01T00:02:16;5.30;99.90
25050;DHT22;13046;49.814;9.918;2023-02-01T00:04:41;5.30;99.90
25050;DHT22;13046;49.814;9.918;2023-02-01T00:07:07;5.30;99.90
25050;DHT22;13046;49.814;9.918;2023-02-01T00:09:32;5.30;99.90
25050;DHT22;13046;49.814;9.918;2023-02-01T00:11:58;5.30;99.90
25050;DHT22;13046;49.814;9.918;2023-02-01T00:14:27;5.30;99.90
25050;DHT22;13046;49.814;9.918;2023-02-01T00:16:53;5.30;99.90
25050;DHT22;13046;49.814;9.918;2023-02-01T00:19:18;5.30;99.90
25050;DHT22;13046;49.814;9.918;2023-02-01T00:21:44;5.30;99.90
25050;DHT22;13046;49.814;9.918;2023-02-01T00:24:12;5.30;99.90
25050;DHT22;13046;49.814;9.918;2023-02-01T00:26:40;5.30;99.90
25050;DHT22;13046;49.814;9.918;2023-02-01T00:29:14;5.30;99.90
25050;DHT22;13046;49.814;9.918;2023-02-01T00:31:40;5.30;99.90
25050;DHT22;13046;49.814;9.918;2023-02-01T00:34:06;5.30;99.90
25050;DHT22;13046;49.814;9.918;2023-02-01T00:36:32;5.30;99.90
25050;DHT22;13046;49.814;9.918;2023-02-01T00:38:58;5.30;99.90
25050;DHT22;13046;49.814;9.918;2023-02-01T00:41:24;5.30;99.90
25050;DHT22;13046;49.814;9.918;2023-02-01T00:43:50;5.30;99.90
25050;DHT22;13046;49.814;9.918;2023-02-01T00:46:17;5.40;99.90
25050;DHT22;13046;49.814;9.918;2023-02-01T00:48:44;5.40;99.90
25050;DHT22;13046;49.814;9.918;2023-02-01T00:51:12;5.40;99.90
25050;DHT22;13046;49.814;9.918;2023-02-01T00:53:39;5.40;99.90
25050;DHT22;13046;49.814;9.918;2023-02-01T00:56:05;5.40;99.90
25050;DHT22;13046;49.814;9.918;2023-02-01T00:58:32;5.40;99.90
25050;DHT22;13046;49.814;9.918;2023-02-01T01:03:40;5.50;99.90
25050;DHT22;13046;49.814;9.918;2023-02-01T01:06:09;5.50;99.90
25050;DHT22;13046;49.814;9.918;2023-02-01T01:08:36;5.50;99.90
25050;DHT22;13046;49.814;9.918;2023-02-01T01:11:17;5.40;99.90
25050;DHT22;13046;49.814;9.918;2023-02-01T01:13:43;5.40;99.90
25050;DHT22;13046;49.814;9.918;2023-02-01T01:16:11;5.50;99.90
25050;DHT22;13046;49.814;9.918;2023-02-01T01:18:38;5.40;99.90
25050;DHT22;13046;49.814;9.918;2023-02-01T01:21:05;5.40;99.90
25050;DHT22;13046;49.814;9.918;2023-02-01T01:23:31;5.40;99.90
25050;DHT22;13046;49.814;9.918;2023-02-01T01:25:57;5.40;99.90
25050;DHT22;13046;49.814;9.918;2023-02-01T01:28:23;5.50;99.90
25050;DHT22;13046;49.814;9.918;2023-02-01T01:30:48;5.50;99.90
25050;DHT22;13046;49.814;9.918;2023-02-01T01:33:14;5.50;99.90
25050;DHT22;13046;49.814;9.918;2023-02-01T01:35:41;5.50;99.90
25050;DHT22;13046;49.814;9.918;2023-02-01T01:38:08;5.50;99.90
25050;DHT22;13046;49.814;9.918;2023-02-01T01:40:34;5.50;99.90
25050;DHT22;13046;49.814;9.918;2023-02-01T01:43:00;5.50;99.90
25050;DHT22;13046;49.814;9.918;2023-02-01T01:45:31;5.50;99.90
25050;DHT22;13046;49.814;9.918;2023-02-01T01:48:08;5.50;99.90
25050;DHT22;13046;49.814;9.918;2023-02-01T01:51:00;5.50;99.90
25050;DHT22;13046;49.814;9.918;2023-02-01T01:53:33;5.50;99.90
25050;DHT22;13046;49.814;9.918;2023-02-01T01:56:02;5.50;99.90
25050;DHT22;13046;49.814;9.918;2023-02-01T01:58:29;5.60;99.90
25050;DHT22;13046;49.814;9.918;2023-02-01T02:00:56;5.50;99.90
25050;DHT22;13046;49.814;9.918;2023-02-01T02:03:25;5.50;99.90
25050;DHT22;13046;49.814;9.918;2023-02-01T02:05:54;5.50;99.90
25050;DHT22;13046;49.814;9.918;2023-02-01T02:08:21;5.50;99.90
25050;DHT22;13046;49.814;9.918;2023-02-01T02:10:49;5.50;99.90
25050;DHT22;13046;49.814;9.918;2023-02-01T02:13:38;5.40;99.90
25050;DHT22;13046;49.814;9.918;2023-02-01T02:21:34;5.30;99.90
25050;DHT22;13046;49.814;9.918;2023-02-01T02:27:09;5.30;99.90
25050;DHT22;13046;49.814;9.918;2023-02-01T02:30:11;5.30;99.90
25050;DHT22;13046;49.814;9.918;2023-02-01T02:35:58;5.30;99.90
25050;DHT22;13046;49.814;9.918;2023-02-01T02:44:34;5.30;99.90
25050;DHT22;13046;49.814;9.918;2023-02-01T02:47:28;5.40;99.90
25050;DHT22;13046;49.814;9.918;2023-02-01T02:50:22;5.40;99.90
25050;DHT22;13046;49.814;9.918;2023-02-01T02:53:16;5.30;99.90
25050;DHT22;13046;49.814;9.918;2023-02-01T02:56:03;5.30;99.90
25050;DHT22;13046;49.814;9.918;2023-02-01T02:58:49;5.30;99.90
25050;DHT22;13046;49.814;9.918;2023-02-01T03:01:34;5.30;99.90
25050;DHT22;13046;49.814;9.918;2023-02-01T03:04:18;5.30;99.90
25050;DHT22;13046;49.814;9.918;2023-02-01T03:06:47;5.30;99.90
25050;DHT22;13046;49.814;9.918;2023-02-01T03:09:26;5.30;99.90
25050;DHT22;13046;49.814;9.918;2023-02-01T03:11:56;5.20;99.90
25050;DHT22;13046;49.814;9.918;2023-02-01T03:14:45;5.20;99.90
25050;DHT22;13046;49.814;9.918;2023-02-01T03:17:15;5.10;99.90
25050;DHT22;13046;49.814;9.918;2023-02-01T03:19:45;5.10;99.90
25050;DHT22;13046;49.814;9.918;2023-02-01T03:22:20;5.10;99.90
25050;DHT22;13046;49.814;9.918;2023-02-01T03:24:49;5.00;99.90
25050;DHT22;13046;49.814;9.918;2023-02-01T03:27:27;5.00;99.90
25050;DHT22;13046;49.814;9.918;2023-02-01T03:30:22;5.00;99.90
25050;DHT22;13046;49.814;9.918;2023-02-01T03:32:55;5.00;99.90
25050;DHT22;13046;49.814;9.918;2023-02-01T03:35:30;5.00;99.90
25050;DHT22;13046;49.814;9.918;2023-02-01T03:38:23;5.00;99.90
25050;DHT22;13046;49.814;9.918;2023-02-01T03:40:53;5.00;99.90
25050;DHT22;13046;49.814;9.918;2023-02-01T03:43:23;5.00;99.90
25050;DHT22;13046;49.814;9.918;2023-02-01T03:45:55;5.00;99.90
25050;DHT22;13046;49.814;9.918;2023-02-01T03:48:23;5.00;99.90
25050;DHT22;13046;49.814;9.918;2023-02-01T03:50:52;5.00;99.90
25050;DHT22;13046;49.814;9.918;2023-02-01T03:53:21;5.00;99.90
25050;DHT22;13046;49.814;9.918;2023-02-01T03:55:49;4.90;99.90
25050;DHT22;13046;49.814;9.918;2023-02-01T03:58:18;4.90;99.90
25050;DHT22;13046;49.814;9.918;2023-02-01T04:00:55;4.90;99.90
25050;DHT22;13046;49.814;9.918;2023-02-01T04:03:22;4.90;99.90
25050;DHT22;13046;49.814;9.918;2023-02-01T04:05:49;4.90;99.90
25050;DHT22;13046;49.814;9.918;2023-02-01T04:08:15;4.90;99.90
25050;DHT22;13046;49.814;9.918;2023-02-01T04:10:41;4.90;99.90
25050;DHT22;13046;49.814;9.918;2023-02-01T04:13:07;4.90;99.90
25050;DHT22;13046;49.814;9.918;2023-02-01T04:15:33;5.00;99.90
25050;DHT22;13046;49.814;9.918;2023-02-01T04:18:00;4.90;99.90
25050;DHT22;13046;49.814;9.918;2023-02-01T04:20:25;4.90;99.90
25050;DHT22;13046;49.814;9.918;2023-02-01T04:22:51;4.90;99.90
25050;DHT22;13046;49.814;9.918;2023-02-01T04:25:17;4.90;99.90
25050;DHT22;13046;49.814;9.918;2023-02-01T04:27:45;4.80;99.90
25050;DHT22;13046;49.814;9.918;2023-02-01T04:30:11;4.80;99.90
25050;DHT22;13046;49.814;9.918;2023-02-01T04:32:38;4.80;99.90
25050;DHT22;13046;49.814;9.918;2023-02-01T04:35:04;4.70;99.90
25050;DHT22;13046;49.814;9.918;2023-02-01T04:37:30;4.70;99.90
25050;DHT22;13046;49.814;9.918;2023-02-01T04:39:56;4.70;99.90
25050;DHT22;13046;49.814;9.918;2023-02-01T04:42:21;4.60;99.90
25050;DHT22;13046;49.814;9.918;2023-02-01T04:44:47;4.60;99.90
25050;DHT22;13046;49.814;9.918;2023-02-01T04:47:13;4.60;99.90
25050;DHT22;13046;49.814;9.918;2023-02-01T04:49:39;4.60;99.90
25050;DHT22;13046;49.814;9.918;2023-02-01T04:52:05;4.60;99.90
25050;DHT22;13046;49.814;9.918;2023-02-01T04:54:31;4.60;99.90
25050;DHT22;13046;49.814;9.918;2023-02-01T04:56:56;4.60;99.90
25050;DHT22;13046;49.814;9.918;2023-02-01T04:59:22;4.60;99.90
25050;DHT22;13046;49.814;9.918;2023-02-01T05:01:48;4.60;99.90
25050;DHT22;13046;49.814;9.918;2023-02-01T05:04:13;4.60;99.90
25050;DHT22;13046;49.814;9.918;2023-02-01T05:06:39;4.60;99.90
25050;DHT22;13046;49.814;9.918;2023-02-01T05:09:05;4.60;99.90
25050;DHT22;13046;49.814;9.918;2023-02-01T05:11:30;4.60;99.90
25050;DHT22;13046;49.814;9.918;2023-02-01T05:14:15;4.70;99.90
25050;DHT22;13046;49.814;9.918;2023-02-01T05:16:40;4.60;99.90
25050;DHT22;13046;49.814;9.918;2023-02-01T05:19:06;4.60;99.90
25050;DHT22;13046;49.814;9.918;2023-02-01T05:21:32;4.60;99.90
25050;DHT22;13046;49.814;9.918;2023-02-01T05:23:57;4.50;99.90
25050;DHT22;13046;49.814;9.918;2023-02-01T05:26:36;4.50;99.90
25050;DHT22;13046;49.814;9.918;2023-02-01T05:29:02;4.50;99.90
25050;DHT22;13046;49.814;9.918;2023-02-01T05:31:28;4.50;99.90
25050;DHT22;13046;49.814;9.918;2023-02-01T05:33:53;4.40;99.90
25050;DHT22;13046;49.814;9.918;2023-02-01T05:36:19;4.40;99.90
25050;DHT22;13046;49.814;9.918;2023-02-01T05:38:45;4.40;99.90
25050;DHT22;13046;49.814;9.918;2023-02-01T05:41:10;4.40;99.90
25050;DHT22;13046;49.814;9.918;2023-02-01T05:43:36;4.40;99.90
25050;DHT22;13046;49.814;9.918;2023-02-01T05:46:02;4.40;99.90
25050;DHT22;13046;49.814;9.918;2023-02-01T05:48:27;4.50;99.90
25050;DHT22;13046;49.814;9.918;2023-02-01T05:50:53;4.50;99.90
25050;DHT22;13046;49.814;9.918;2023-02-01T05:53:19;4.50;99.90
25050;DHT22;13046;49.814;9.918;2023-02-01T05:55:44;4.50;99.90
25050;DHT22;13046;49.814;9.918;2023-02-01T05:58:10;4.50;99.90
25050;DHT22;13046;49.814;9.918;2023-02-01T06:00:38;4.50;99.90
25050;DHT22;13046;49.814;9.918;2023-02-01T06:03:04;4.50;99.90
25050;DHT22;13046;49.814;9.918;2023-02-01T06:05:29;4.50;99.90
25050;DHT22;13046;49.814;9.918;2023-02-01T06:07:55;4.60;99.90
25050;DHT22;13046;49.814;9.918;2023-02-01T06:10:21;4.60;99.90
25050;DHT22;13046;49.814;9.918;2023-02-01T06:12:47;4.60;99.90
25050;DHT22;13046;49.814;9.918;2023-02-01T06:15:13;4.60;99.90
25050;DHT22;13046;49.814;9.918;2023-02-01T06:17:41;4.70;99.90
25050;DHT22;13046;49.814;9.918;2023-02-01T06:20:09;4.70;99.90
25050;DHT22;13046;49.814;9.918;2023-02-01T06:22:35;4.70;99.90
25050;DHT22;13046;49.814;9.918;2023-02-01T06:25:02;4.70;99.90
25050;DHT22;13046;49.814;9.918;2023-02-01T06:27:28;4.70;99.90
25050;DHT22;13046;49.814;9.918;2023-02-01T06:29:54;4.70;99.90
25050;DHT22;13046;49.814;9.918;2023-02-01T06:32:21;4.70;99.90
25050;DHT22;13046;49.814;9.918;2023-02-01T06:34:46;4.80;99.90
25050;DHT22;13046;49.814;9.918;2023-02-01T06:37:14;4.80;99.90
25050;DHT22;13046;49.814;9.918;2023-02-01T06:39:40;4.70;99.90
25050;DHT22;13046;49.814;9.918;2023-02-01T06:42:06;4.70;99.90
25050;DHT22;13046;49.814;9.918;2023-02-01T06:44:31;4.70;99.90
25050;DHT22;13046;49.814;9.918;2023-02-01T06:46:57;4.70;99.90
25050;DHT22;13046;49.814;9.918;2023-02-01T06:49:23;4.70;99.90
25050;DHT22;13046;49.814;9.918;2023-02-01T06:51:48;4.70;99.90
25050;DHT22;13046;49.814;9.918;2023-02-01T06:54:14;4.80;99.90
25050;DHT22;13046;49.814;9.918;2023-02-01T06:56:40;4.80;99.90
25050;DHT22;13046;49.814;9.918;2023-02-01T06:59:07;4.80;99.90
25050;DHT22;13046;49.814;9.918;2023-02-01T07:01:33;4.80;99.90
25050;DHT22;13046;49.814;9.918;2023-02-01T07:03:59;4.80;99.90
25050;DHT22;13046;49.814;9.918;2023-02-01T07:06:25;4.80;99.90
25050;DHT22;13046;49.814;9.918;2023-02-01T07:08:51;4.80;99.90
25050;DHT22;13046;49.814;9.918;2023-02-01T07:11:19;4.80;99.90
25050;DHT22;13046;49.814;9.918;2023-02-01T07:13:45;4.70;99.90
25050;DHT22;13046;49.814;9.918;2023-02-01T07:16:13;4.60;99.90
25050;DHT22;13046;49.814;9.918;2023-02-01T07:18:39;4.60;99.90
25050;DHT22;13046;49.814;9.918;2023-02-01T07:21:05;4.60;99.90
25050;DHT22;13046;49.814;9.918;2023-02-01T07:23:31;4.50;99.90
25050;DHT22;13046;49.814;9.918;2023-02-01T07:25:59;4.50;99.90
25050;DHT22;13046;49.814;9.918;2023-02-01T07:28:26;4.50;99.90
25050;DHT22;13046;49.814;9.918;2023-02-01T07:30:53;4.50;99.90
25050;DHT22;13046;49.814;9.918;2023-02-01T07:33:23;4.60;99.90
25050;DHT22;13046;49.814;9.918;2023-02-01T07:35:50;4.70;99.90
25050;DHT22;13046;49.814;9.918;2023-02-01T07:38:16;4.60;99.90
25050;DHT22;13046;49.814;9.918;2023-02-01T07:40:42;4.80;99.90
25050;DHT22;13046;49.814;9.918;2023-02-01T07:43:08;4.90;99.90
25050;DHT22;13046;49.814;9.918;2023-02-01T07:45:37;5.00;99.90
25050;DHT22;13046;49.814;9.918;2023-02-01T07:48:03;5.00;99.90
25050;DHT22;13046;49.814;9.918;2023-02-01T07:50:29;5.10;99.90
25050;DHT22;13046;49.814;9.918;2023-02-01T07:52:55;5.20;99.90
25050;DHT22;13046;49.814;9.918;2023-02-01T07:55:23;5.20;99.90
25050;DHT22;13046;49.814;9.918;2023-02-01T07:57:50;5.20;99.90
25050;DHT22;13046;49.814;9.918;2023-02-01T08:00:16;5.30;99.90
25050;DHT22;13046;49.814;9.918;2023-02-01T08:03:13;5.30;99.90
25050;DHT22;13046;49.814;9.918;2023-02-01T08:05:39;5.30;99.90
25050;DHT22;13046;49.814;9.918;2023-02-01T08:08:05;5.40;99.90
25050;DHT22;13046;49.814;9.918;2023-02-01T08:10:31;5.40;99.90
25050;DHT22;13046;49.814;9.918;2023-02-01T08:12:58;5.40;99.90
25050;DHT22;13046;49.814;9.918;2023-02-01T08:15:26;5.40;99.90
25050;DHT22;13046;49.814;9.918;2023-02-01T08:17:52;5.40;99.90
25050;DHT22;13046;49.814;9.918;2023-02-01T08:20:20;5.50;99.90
25050;DHT22;13046;49.814;9.918;2023-02-01T08:22:47;5.60;99.90
25050;DHT22;13046;49.814;9.918;2023-02-01T08:25:13;5.80;99.90
25050;DHT22;13046;49.814;9.918;2023-02-01T08:27:38;5.90;99.90
25050;DHT22;13046;49.814;9.918;2023-02-01T08:30:05;6.00;99.90
25050;DHT22;13046;49.814;9.918;2023-02-01T08:32:33;6.00;99.90
25050;DHT22;13046;49.814;9.918;2023-02-01T08:34:59;6.30;99.90
25050;DHT22;13046;49.814;9.918;2023-02-01T08:37:25;6.40;99.90
25050;DHT22;13046;49.814;9.918;2023-02-01T08:39:50;6.50;99.90
25050;DHT22;13046;49.814;9.918;2023-02-01T08:42:17;6.60;99.90
25050;DHT22;13046;49.814;9.918;2023-02-01T08:45:02;6.60;99.90
25050;DHT22;13046;49.814;9.918;2023-02-01T08:47:28;6.60;99.90
25050;DHT22;13046;49.814;9.918;2023-02-01T08:49:54;6.50;99.90
25050;DHT22;13046;49.814;9.918;2023-02-01T08:52:20;6.60;99.90
25050;DHT22;13046;49.814;9.918;2023-02-01T08:54:46;6.60;99.90
25050;DHT22;13046;49.814;9.918;2023-02-01T08:57:11;6.50;99.90
25050;DHT22;13046;49.814;9.918;2023-02-01T08:59:37;6.40;99.90
25050;DHT22;13046;49.814;9.918;2023-02-01T09:02:03;6.30;99.90
25050;DHT22;13046;49.814;9.918;2023-02-01T09:04:29;6.20;99.90
25050;DHT22;13046;49.814;9.918;2023-02-01T09:06:54;6.10;99.90
25050;DHT22;13046;49.814;9.918;2023-02-01T09:09:23;6.10;99.90
25050;DHT22;13046;49.814;9.918;2023-02-01T09:11:49;6.10;99.90
25050;DHT22;13046;49.814;9.918;2023-02-01T09:14:16;6.20;99.90
25050;DHT22;13046;49.814;9.918;2023-02-01T09:16:42;6.20;99.90
25050;DHT22;13046;49.814;9.918;2023-02-01T09:19:07;6.10;99.90
25050;DHT22;13046;49.814;9.918;2023-02-01T09:21:33;6.10;99.90
25050;DHT22;13046;49.814;9.918;2023-02-01T09:23:59;6.10;99.90
25050;DHT22;13046;49.814;9.918;2023-02-01T09:26:25;6.10;99.90
25050;DHT22;13046;49.814;9.918;2023-02-01T09:28:51;6.10;99.90
25050;DHT22;13046;49.814;9.918;2023-02-01T09:31:17;6.10;99.90
25050;DHT22;13046;49.814;9.918;2023-02-01T09:33:42;6.10;99.90
25050;DHT22;13046;49.814;9.918;2023-02-01T09:36:08;6.10;99.90
25050;DHT22;13046;49.814;9.918;2023-02-01T09:38:33;6.10;99.90
25050;DHT22;13046;49.814;9.918;2023-02-01T09:40:59;6.10;99.90
25050;DHT22;13046;49.814;9.918;2023-02-01T09:48:38;6.20;99.90
25050;DHT22;13046;49.814;9.918;2023-02-01T09:51:13;6.20;99.90
25050;DHT22;13046;49.814;9.918;2023-02-01T09:53:42;6.20;99.90
25050;DHT22;13046;49.814;9.918;2023-02-01T09:56:36;6.20;99.90
25050;DHT22;13046;49.814;9.918;2023-02-01T10:01:31;6.20;99.90
25050;DHT22;13046;49.814;9.918;2023-02-01T10:04:09;6.20;99.90
25050;DHT22;13046;49.814;9.918;2023-02-01T10:06:55;6.20;99.90
25050;DHT22;13046;49.814;9.918;2023-02-01T10:20:50;6.40;99.90
25050;DHT22;13046;49.814;9.918;2023-02-01T10:24:15;6.40;99.90
25050;DHT22;13046;49.814;9.918;2023-02-01T10:26:21;6.50;99.90
25050;DHT22;13046;49.814;9.918;2023-02-01T10:28:50;6.50;99.90
25050;DHT22;13046;49.814;9.918;2023-02-01T10:31:18;6.50;99.90
25050;DHT22;13046;49.814;9.918;2023-02-01T10:33:47;6.50;99.90
25050;DHT22;13046;49.814;9.918;2023-02-01T10:39:03;6.60;99.90
25050;DHT22;13046;49.814;9.918;2023-02-01T10:41:37;6.70;99.90
25050;DHT22;13046;49.814;9.918;2023-02-01T10:44:12;6.80;99.90
25050;DHT22;13046;49.814;9.918;2023-02-01T10:46:38;6.90;99.90
25050;DHT22;13046;49.814;9.918;2023-02-01T10:49:08;6.90;99.90
25050;DHT22;13046;49.814;9.918;2023-02-01T10:51:54;6.80;99.90
25050;DHT22;13046;49.814;9.918;2023-02-01T10:54:31;6.80;99.90
25050;DHT22;13046;49.814;9.918;2023-02-01T10:56:57;6.70;99.90
25050;DHT22;13046;49.814;9.918;2023-02-01T10:59:28;6.60;99.90
25050;DHT22;13046;49.814;9.918;2023-02-01T11:02:00;6.60;99.90
25050;DHT22;13046;49.814;9.918;2023-02-01T11:04:29;6.60;99.90
25050;DHT22;13046;49.814;9.918;2023-02-01T11:07:18;6.60;99.90
25050;DHT22;13046;49.814;9.918;2023-02-01T11:09:50;6.60;99.90
25050;DHT22;13046;49.814;9.918;2023-02-01T11:12:29;6.60;99.90
25050;DHT22;13046;49.814;9.918;2023-02-01T11:17:46;6.50;99.90
25050;DHT22;13046;49.814;9.918;2023-02-01T11:20:41;6.50;99.90
25050;DHT22;13046;49.814;9.918;2023-02-01T11:23:15;6.60;99.90
25050;DHT22;13046;49.814;9.918;2023-02-01T11:26:00;6.70;99.90
25050;DHT22;13046;49.814;9.918;2023-02-01T11:28:33;6.90;99.90
25050;DHT22;13046;49.814;9.918;2023-02-01T11:31:04;7.40;99.90
25050;DHT22;13046;49.814;9.918;2023-02-01T11:33:33;7.80;99.90
25050;DHT22;13046;49.814;9.918;2023-02-01T11:36:09;8.10;99.90
25050;DHT22;13046;49.814;9.918;2023-02-01T11:38:37;8.20;99.90
25050;DHT22;13046;49.814;9.918;2023-02-01T11:41:16;8.30;99.90
25050;DHT22;13046;49.814;9.918;2023-02-01T11:43:57;8.50;99.90
25050;DHT22;13046;49.814;9.918;2023-02-01T11:46:30;8.40;99.90
25050;DHT22;13046;49.814;9.918;2023-02-01T11:48:57;8.10;99.90
25050;DHT22;13046;49.814;9.918;2023-02-01T11:52:03;8.20;99.90
25050;DHT22;13046;49.814;9.918;2023-02-01T12:00:22;7.90;99.90
25050;DHT22;13046;49.814;9.918;2023-02-01T12:05:59;7.50;99.90
25050;DHT22;13046;49.814;9.918;2023-02-01T12:08:40;7.40;99.90
25050;DHT22;13046;49.814;9.918;2023-02-01T12:14:14;7.10;99.90
25050;DHT22;13046;49.814;9.918;2023-02-01T12:17:12;7.00;99.90
25050;DHT22;13046;49.814;9.918;2023-02-01T12:31:10;7.10;99.90
25050;DHT22;13046;49.814;9.918;2023-02-01T12:33:51;7.00;99.90
25050;DHT22;13046;49.814;9.918;2023-02-01T12:36:31;7.00;99.90
25050;DHT22;13046;49.814;9.918;2023-02-01T12:40:02;7.00;99.90
25050;DHT22;13046;49.814;9.918;2023-02-01T12:42:16;7.00;99.90
25050;DHT22;13046;49.814;9.918;2023-02-01T12:44:57;7.10;99.90
25050;DHT22;13046;49.814;9.918;2023-02-01T12:47:32;7.10;99.90
25050;DHT22;13046;49.814;9.918;2023-02-01T12:50:11;7.00;99.90
25050;DHT22;13046;49.814;9.918;2023-02-01T12:52:51;7.00;99.90
25050;DHT22;13046;49.814;9.918;2023-02-01T12:55:41;7.00;99.90
25050;DHT22;13046;49.814;9.918;2023-02-01T12:58:26;7.00;99.90
25050;DHT22;13046;49.814;9.918;2023-02-01T13:01:09;7.00;99.90
25050;DHT22;13046;49.814;9.918;2023-02-01T13:03:50;7.00;99.90
25050;DHT22;13046;49.814;9.918;2023-02-01T13:06:31;7.00;99.90
25050;DHT22;13046;49.814;9.918;2023-02-01T13:11:44;6.90;99.90
25050;DHT22;13046;49.814;9.918;2023-02-01T13:14:31;6.90;99.90
25050;DHT22;13046;49.814;9.918;2023-02-01T13:17:02;6.90;99.90
25050;DHT22;13046;49.814;9.918;2023-02-01T13:19:37;6.90;99.90
25050;DHT22;13046;49.814;9.918;2023-02-01T13:22:25;6.90;99.90
25050;DHT22;13046;49.814;9.918;2023-02-01T13:25:00;7.00;99.90
25050;DHT22;13046;49.814;9.918;2023-02-01T13:27:28;7.00;99.90
25050;DHT22;13046;49.814;9.918;2023-02-01T13:30:10;7.10;99.90
25050;DHT22;13046;49.814;9.918;2023-02-01T13:38:51;6.90;99.90
25050;DHT22;13046;49.814;9.918;2023-02-01T13:43:28;6.90;99.90
25050;DHT22;13046;49.814;9.918;2023-02-01T13:45:57;6.90;99.90
25050;DHT22;13046;49.814;9.918;2023-02-01T13:48:33;6.90;99.90
25050;DHT22;13046;49.814;9.918;2023-02-01T13:51:01;6.90;99.90
25050;DHT22;13046;49.814;9.918;2023-02-01T13:55:58;6.80;99.90
25050;DHT22;13046;49.814;9.918;2023-02-01T14:04:03;6.80;99.90
25050;DHT22;13046;49.814;9.918;2023-02-01T14:09:12;6.80;99.90
25050;DHT22;13046;49.814;9.918;2023-02-01T14:16:42;6.70;99.90
25050;DHT22;13046;49.814;9.918;2023-02-01T14:19:18;6.70;99.90
25050;DHT22;13046;49.814;9.918;2023-02-01T14:24:29;6.70;99.90
25050;DHT22;13046;49.814;9.918;2023-02-01T14:26:57;6.80;99.90
25050;DHT22;13046;49.814;9.918;2023-02-01T14:29:42;6.80;99.90
25050;DHT22;13046;49.814;9.918;2023-02-01T14:32:17;6.80;99.90
25050;DHT22;13046;49.814;9.918;2023-02-01T14:42:42;7.00;99.90
25050;DHT22;13046;49.814;9.918;2023-02-01T14:48:42;7.00;99.90
25050;DHT22;13046;49.814;9.918;2023-02-01T14:50:47;7.10;99.90
25050;DHT22;13046;49.814;9.918;2023-02-01T14:55:40;7.30;99.90
25050;DHT22;13046;49.814;9.918;2023-02-01T14:58:14;7.20;99.90
25050;DHT22;13046;49.814;9.918;2023-02-01T15:00:55;7.20;99.90
25050;DHT22;13046;49.814;9.918;2023-02-01T15:12:16;7.00;99.90
25050;DHT22;13046;49.814;9.918;2023-02-01T15:15:13;6.90;99.90
25050;DHT22;13046;49.814;9.918;2023-02-01T15:17:40;6.90;99.90
25050;DHT22;13046;49.814;9.918;2023-02-01T15:22:40;6.90;99.90
25050;DHT22;13046;49.814;9.918;2023-02-01T15:25:18;6.90;99.90
25050;DHT22;13046;49.814;9.918;2023-02-01T15:27:45;6.90;99.90
25050;DHT22;13046;49.814;9.918;2023-02-01T15:30:26;6.90;99.90
25050;DHT22;13046;49.814;9.918;2023-02-01T15:33:05;6.90;99.90
25050;DHT22;13046;49.814;9.918;2023-02-01T15:35:36;6.90;99.90
25050;DHT22;13046;49.814;9.918;2023-02-01T15:41:04;6.90;99.90
25050;DHT22;13046;49.814;9.918;2023-02-01T15:46:17;6.80;99.90
25050;DHT22;13046;49.814;9.918;2023-02-01T15:48:50;6.80;99.90
25050;DHT22;13046;49.814;9.918;2023-02-01T15:51:24;6.90;99.90
25050;DHT22;13046;49.814;9.918;2023-02-01T15:54:03;6.90;99.90
25050;DHT22;13046;49.814;9.918;2023-02-01T15:56:35;6.80;99.90
25050;DHT22;13046;49.814;9.918;2023-02-01T15:59:12;6.90;99.90
25050;DHT22;13046;49.814;9.918;2023-02-01T16:01:48;6.80;99.90
25050;DHT22;13046;49.814;9.918;2023-02-01T16:04:21;6.80;99.90
25050;DHT22;13046;49.814;9.918;2023-02-01T16:06:54;6.80;99.90
25050;DHT22;13046;49.814;9.918;2023-02-01T16:09:22;6.80;99.90
25050;DHT22;13046;49.814;9.918;2023-02-01T16:11:57;6.70;99.90
25050;DHT22;13046;49.814;9.918;2023-02-01T16:14:24;6.70;99.90
25050;DHT22;13046;49.814;9.918;2023-02-01T16:16:51;6.70;99.90
25050;DHT22;13046;49.814;9.918;2023-02-01T16:19:17;6.80;99.90
25050;DHT22;13046;49.814;9.918;2023-02-01T16:21:43;6.80;99.90
25050;DHT22;13046;49.814;9.918;2023-02-01T16:24:09;6.70;99.90
25050;DHT22;13046;49.814;9.918;2023-02-01T16:26:35;6.70;99.90
25050;DHT22;13046;49.814;9.918;2023-02-01T16:29:01;6.70;99.90
25050;DHT22;13046;49.814;9.918;2023-02-01T16:31:34;6.70;99.90
25050;DHT22;13046;49.814;9.918;2023-02-01T16:34:00;6.70;99.90
25050;DHT22;13046;49.814;9.918;2023-02-01T16:36:26;6.70;99.90
25050;DHT22;13046;49.814;9.918;2023-02-01T16:38:54;6.70;99.90
25050;DHT22;13046;49.814;9.918;2023-02-01T16:41:22;6.70;99.90
25050;DHT22;13046;49.814;9.918;2023-02-01T16:43:53;6.70;99.90
25050;DHT22;13046;49.814;9.918;2023-02-01T16:46:25;6.70;99.90
25050;DHT22;13046;49.814;9.918;2023-02-01T16:48:56;6.70;99.90
25050;DHT22;13046;49.814;9.918;2023-02-01T16:51:24;6.70;99.90
25050;DHT22;13046;49.814;9.918;2023-02-01T16:53:51;6.70;99.90
25050;DHT22;13046;49.814;9.918;2023-02-01T16:56:19;6.70;99.90
25050;DHT22;13046;49.814;9.918;2023-02-01T16:58:46;6.70;99.90
25050;DHT22;13046;49.814;9.918;2023-02-01T17:01:14;6.70;99.90
25050;DHT22;13046;49.814;9.918;2023-02-01T17:03:41;6.70;99.90
25050;DHT22;13046;49.814;9.918;2023-02-01T17:06:10;6.70;99.90
25050;DHT22;13046;49.814;9.918;2023-02-01T17:08:40;6.70;99.90
25050;DHT22;13046;49.814;9.918;2023-02-01T17:11:07;6.70;99.90
25050;DHT22;13046;49.814;9.918;2023-02-01T17:13:33;6.70;99.90
25050;DHT22;13046;49.814;9.918;2023-02-01T17:16:06;6.70;99.90
25050;DHT22;13046;49.814;9.918;2023-02-01T17:18:34;6.60;99.90
25050;DHT22;13046;49.814;9.918;2023-02-01T17:21:01;6.60;99.90
25050;DHT22;13046;49.814;9.918;2023-02-01T17:23:28;6.50;99.90
25050;DHT22;13046;49.814;9.918;2023-02-01T17:25:54;6.50;99.90
25050;DHT22;13046;49.814;9.918;2023-02-01T17:28:20;6.50;99.90
25050;DHT22;13046;49.814;9.918;2023-02-01T17:30:46;6.40;99.90
25050;DHT22;13046;49.814;9.918;2023-02-01T17:33:38;6.40;99.90
25050;DHT22;13046;49.814;9.918;2023-02-01T17:36:04;6.40;99.90
25050;DHT22;13046;49.814;9.918;2023-02-01T17:38:32;6.30;99.90
25050;DHT22;13046;49.814;9.918;2023-02-01T17:41:01;6.30;99.90
25050;DHT22;13046;49.814;9.918;2023-02-01T17:43:27;6.30;99.90
25050;DHT22;13046;49.814;9.918;2023-02-01T17:45:59;6.30;99.90
25050;DHT22;13046;49.814;9.918;2023-02-01T17:48:26;6.40;99.90
25050;DHT22;13046;49.814;9.918;2023-02-01T17:50:52;6.40;99.90
25050;DHT22;13046;49.814;9.918;2023-02-01T17:53:24;6.40;99.90
25050;DHT22;13046;49.814;9.918;2023-02-01T17:55:50;6.40;99.90
25050;DHT22;13046;49.814;9.918;2023-02-01T17:58:17;6.40;99.90
25050;DHT22;13046;49.814;9.918;2023-02-01T18:00:43;6.40;99.90
25050;DHT22;13046;49.814;9.918;2023-02-01T18:03:23;6.40;99.90
25050;DHT22;13046;49.814;9.918;2023-02-01T18:05:50;6.50;99.90
25050;DHT22;13046;49.814;9.918;2023-02-01T18:08:18;6.50;99.90
25050;DHT22;13046;49.814;9.918;2023-02-01T18:10:48;6.60;99.90
25050;DHT22;13046;49.814;9.918;2023-02-01T18:13:14;6.60;99.90
25050;DHT22;13046;49.814;9.918;2023-02-01T18:15:40;6.60;99.90